createdAt,value
2022-11-16T00:01:42.467Z,100363.63
2022-11-16T00:04:09.879Z,100369.53
2022-11-16T00:06:36.402Z,100351.16
2022-11-16T00:09:22.144Z,100361.13
2022-11-16T00:11:51.353Z,100347.00
2022-11-16T00:14:19.149Z,100341.63
2022-11-16T00:16:45.667Z,100342.47
2022-11-16T00:19:12.944Z,100336.09
2022-11-16T00:21:39.985Z,100330.72
2022-11-16T00:24:07.264Z,100325.00
2022-11-16T00:26:33.977Z,100314.91
2022-11-16T00:29:00.622Z,100324.50
2022-11-16T00:31:27.345Z,100326.72
2022-11-16T00:33:53.848Z,100323.34
2022-11-16T00:36:20.509Z,100324.16
2022-11-16T00:38:47.990Z,100335.78
2022-11-16T00:41:14.886Z,100322.50
2022-11-16T00:43:41.632Z,100319.47
2022-11-16T00:46:09.367Z,100303.69
2022-11-16T00:48:36.343Z,100306.19
2022-11-16T00:51:03.306Z,100303.50
2022-11-16T00:53:29.988Z,100302.13
2022-11-16T00:55:56.589Z,100288.00
2022-11-16T00:58:23.453Z,100293.91
2022-11-16T01:00:50.229Z,100293.09
2022-11-16T01:03:17.029Z,100295.09
2022-11-16T01:05:43.701Z,100295.78
2022-11-16T01:08:10.552Z,100296.47
2022-11-16T01:10:40.564Z,100272.72
2022-11-16T01:13:07.510Z,100287.38
2022-11-16T01:15:34.043Z,100274.56
2022-11-16T01:18:00.704Z,100278.63
2022-11-16T01:20:29.115Z,100277.47
2022-11-16T01:22:56.347Z,100272.94
2022-11-16T01:25:22.843Z,100280.31
2022-11-16T01:27:49.460Z,100276.63
2022-11-16T01:30:16.881Z,100264.88
2022-11-16T01:32:43.758Z,100270.25
2022-11-16T01:35:17.380Z,100250.06
2022-11-16T01:37:45.142Z,100238.13
2022-11-16T01:40:14.169Z,100240.34
2022-11-16T01:42:41.253Z,100253.63
2022-11-16T01:45:16.741Z,100242.03
2022-11-16T01:47:43.784Z,100239.47
2022-11-16T01:50:15.486Z,100240.03
2022-11-16T01:52:48.315Z,100231.97
2022-11-16T01:55:16.074Z,100231.97
2022-11-16T01:57:44.658Z,100223.34
2022-11-16T02:00:13.095Z,100228.41
2022-11-16T02:02:39.672Z,100211.59
2022-11-16T02:05:07.509Z,100215.16
2022-11-16T02:08:04.840Z,100204.22
2022-11-16T02:10:42.644Z,100206.06
2022-11-16T02:13:54.074Z,100201.84
2022-11-16T02:16:44.915Z,100187.53
2022-11-16T02:19:42.262Z,100198.47
2022-11-16T02:22:37.206Z,100186.88
2022-11-16T02:25:20.457Z,100185.69
2022-11-16T02:28:05.216Z,100175.78
2022-11-16T02:30:32.128Z,100181.16
2022-11-16T02:33:08.992Z,100171.09
2022-11-16T02:35:43.552Z,100160.00
2022-11-16T02:38:15.712Z,100169.25
2022-11-16T02:40:47.742Z,100163.03
2022-11-16T02:43:23.167Z,100144.84
2022-11-16T02:45:53.489Z,100148.91
2022-11-16T02:48:29.001Z,100143.88
2022-11-16T02:50:56.191Z,100143.69
2022-11-16T02:53:24.368Z,100140.84
2022-11-16T02:55:51.107Z,100139.00
2022-11-16T02:58:24.546Z,100133.63
2022-11-16T03:01:46.748Z,100130.94
2022-11-16T03:04:29.991Z,100120.66
2022-11-16T03:06:58.305Z,100123.72
2022-11-16T03:09:31.996Z,100117.66
2022-11-16T03:12:01.327Z,100120.84
2022-11-16T03:14:36.996Z,100122.69
2022-11-16T03:17:08.136Z,100112.41
2022-11-16T03:19:43.195Z,100120.84
2022-11-16T03:22:18.433Z,100120.00
2022-11-16T03:24:45.600Z,100122.00
2022-11-16T03:27:12.161Z,100122.00
2022-11-16T03:30:05.622Z,100109.59
2022-11-16T03:32:41.419Z,100102.19
2022-11-16T03:35:15.363Z,100096.81
2022-11-16T03:37:43.021Z,100088.06
2022-11-16T03:40:11.504Z,100091.44
2022-11-16T03:42:39.070Z,100093.28
2022-11-16T03:45:06.243Z,100083.69
2022-11-16T03:47:32.819Z,100085.53
2022-11-16T03:49:59.306Z,100088.75
2022-11-16T03:52:25.840Z,100080.81
2022-11-16T03:54:52.552Z,100077.31
2022-11-16T03:57:19.158Z,100077.31
2022-11-16T03:59:46.134Z,100074.94
2022-11-16T04:02:12.667Z,100073.09
2022-11-16T04:04:58.015Z,100067.91
2022-11-16T04:07:43.050Z,100076.97
2022-11-16T04:10:28.785Z,100075.13
2022-11-16T04:13:14.862Z,100069.94
2022-11-16T04:16:00.258Z,100076.97
2022-11-16T04:18:45.524Z,100064.69
2022-11-16T04:21:49.555Z,100065.38
2022-11-16T04:24:22.513Z,100063.69
2022-11-16T04:27:14.150Z,100060.84
2022-11-16T04:29:41.701Z,100053.94
2022-11-16T04:32:27.464Z,100060.84
2022-11-16T04:35:12.779Z,100069.94
2022-11-16T04:37:48.568Z,100069.06
2022-11-16T04:40:21.004Z,100063.88
2022-11-16T04:42:55.431Z,100056.63
2022-11-16T04:45:41.372Z,100051.25
2022-11-16T04:48:08.865Z,100046.88
2022-11-16T04:50:35.940Z,100029.41
2022-11-16T04:53:03.423Z,100024.88
2022-11-16T04:55:30.073Z,100015.97
2022-11-16T04:57:56.870Z,100016.63
2022-11-16T05:00:23.511Z,100011.44
2022-11-16T05:02:50.194Z,100007.88
2022-11-16T05:05:16.861Z,100009.25
2022-11-16T05:07:43.692Z,100011.25
2022-11-16T05:10:10.881Z,100005.03
2022-11-16T05:12:37.699Z,100013.78
2022-11-16T05:15:05.381Z,100002.84
2022-11-16T05:17:32.022Z,99994.28
2022-11-16T05:20:17.382Z,99988.03
2022-11-16T05:22:43.961Z,99987.91
2022-11-16T05:25:11.293Z,99999.16
2022-11-16T05:27:38.184Z,99998.13
2022-11-16T05:30:06.055Z,99992.94
2022-11-16T05:32:32.747Z,99978.31
2022-11-16T05:34:59.335Z,99978.31
2022-11-16T05:37:26.844Z,99986.22
2022-11-16T05:39:54.959Z,99996.47
2022-11-16T05:42:21.718Z,100006.38
2022-11-16T05:44:48.538Z,100003.38
2022-11-16T05:47:15.185Z,99993.09
2022-11-16T05:49:41.899Z,100001.50
2022-11-16T05:52:08.490Z,100007.91
2022-11-16T05:54:35.020Z,100013.28
2022-11-16T05:57:01.606Z,100000.50
2022-11-16T05:59:30.153Z,99995.63
2022-11-16T06:01:57.813Z,100006.19
2022-11-16T06:04:24.990Z,99989.38
2022-11-16T06:06:52.057Z,99994.44
2022-11-16T06:09:18.901Z,99990.22
2022-11-16T06:11:45.475Z,99998.47
2022-11-16T06:14:12.098Z,99978.97
2022-11-16T06:16:38.644Z,99998.31
2022-11-16T06:19:06.193Z,99980.81
2022-11-16T06:21:33.110Z,99978.63
2022-11-16T06:24:00.074Z,99980.16
2022-11-16T06:26:26.644Z,99985.72
2022-11-16T06:28:54.950Z,99971.91
2022-11-16T06:31:21.824Z,99963.50
2022-11-16T06:33:48.413Z,99956.94
2022-11-16T06:36:14.962Z,99962.34
2022-11-16T06:38:41.545Z,99968.53
2022-11-16T06:41:08.170Z,99983.88
2022-11-16T06:43:34.762Z,99966.19
2022-11-16T06:46:01.536Z,99969.06
2022-11-16T06:48:28.140Z,99966.53
2022-11-16T06:50:54.762Z,99954.97
2022-11-16T06:53:27.597Z,99941.84
2022-11-16T06:55:55.714Z,99954.28
2022-11-16T06:58:22.364Z,99950.25
2022-11-16T07:00:49.102Z,99960.34
2022-11-16T07:03:15.810Z,99961.69
2022-11-16T07:05:42.362Z,99953.78
2022-11-16T07:08:09.090Z,99942.19
2022-11-16T07:10:37.107Z,99941.84
2022-11-16T07:13:04.693Z,99932.09
2022-11-16T07:15:32.122Z,99941.16
2022-11-16T07:18:06.618Z,99923.66
2022-11-16T07:20:34.106Z,99922.31
2022-11-16T07:23:01.933Z,99915.06
2022-11-16T07:25:28.551Z,99922.28
2022-11-16T07:27:55.118Z,99921.59
2022-11-16T07:30:21.691Z,99913.00
2022-11-16T07:32:48.228Z,99900.88
2022-11-16T07:35:14.801Z,99911.13
2022-11-16T07:37:41.429Z,99908.38
2022-11-16T07:40:08.856Z,99898.28
2022-11-16T07:42:35.469Z,99893.53
2022-11-16T07:45:02.020Z,99880.03
2022-11-16T07:47:28.600Z,99885.72
2022-11-16T07:49:56.314Z,99889.56
2022-11-16T07:52:22.824Z,99891.88
2022-11-16T07:54:49.393Z,99883.97
2022-11-16T07:57:15.863Z,99891.53
2022-11-16T07:59:42.340Z,99881.94
2022-11-16T08:02:10.385Z,99893.72
2022-11-16T08:04:38.698Z,99893.00
2022-11-16T08:07:05.576Z,99892.03
2022-11-16T08:09:32.116Z,99895.03
2022-11-16T08:11:58.657Z,99892.75
2022-11-16T08:14:25.219Z,99897.13
2022-11-16T08:16:51.693Z,99895.59
2022-11-16T08:19:18.191Z,99901.31
2022-11-16T08:21:45.724Z,99900.84
2022-11-16T08:24:12.250Z,99903.41
2022-11-16T08:26:38.917Z,99907.97
2022-11-16T08:29:05.467Z,99909.28
2022-11-16T08:31:32.032Z,99914.00
2022-11-16T08:34:08.063Z,99922.28
2022-11-16T08:36:36.461Z,99915.94
2022-11-16T08:39:03.085Z,99913.41
2022-11-16T08:41:29.811Z,99915.56
2022-11-16T08:43:56.341Z,99919.72
2022-11-16T08:46:22.961Z,99919.41
2022-11-16T08:48:49.561Z,99912.47
2022-11-16T08:51:19.669Z,99928.28
2022-11-16T08:53:48.492Z,99929.38
2022-11-16T08:56:17.039Z,99919.06
2022-11-16T08:58:46.697Z,99917.22
2022-11-16T09:01:16.840Z,99923.25
2022-11-16T09:03:43.486Z,99910.78
2022-11-16T09:06:10.855Z,99903.72
2022-11-16T09:08:39.588Z,99911.75
2022-11-16T09:11:11.475Z,99906.25
2022-11-16T09:13:38.573Z,99901.75
2022-11-16T09:16:05.720Z,99902.97
2022-11-16T09:18:32.881Z,99913.06
2022-11-16T09:20:59.787Z,99907.50
2022-11-16T09:23:26.272Z,99908.31
2022-11-16T09:25:53.413Z,99912.91
2022-11-16T09:28:20.910Z,99918.94
2022-11-16T09:30:50.421Z,99927.25
2022-11-16T09:33:17.001Z,99923.09
2022-11-16T09:35:43.531Z,99931.06
2022-11-16T09:38:11.795Z,99926.50
2022-11-16T09:40:45.034Z,99937.66
2022-11-16T09:43:26.495Z,99921.19
2022-11-16T09:46:03.153Z,99919.69
2022-11-16T09:48:35.461Z,99923.69
2022-11-16T09:51:08.241Z,99930.41
2022-11-16T09:53:56.309Z,99929.22
2022-11-16T09:56:28.570Z,99924.34
2022-11-16T09:59:42.793Z,99908.28
2022-11-16T10:02:28.973Z,99904.31
2022-11-16T10:05:22.655Z,99885.44
2022-11-16T10:07:54.905Z,99864.78
2022-11-16T10:10:34.970Z,99859.84
2022-11-16T10:13:32.820Z,99863.34
2022-11-16T10:16:21.408Z,99853.84
2022-11-16T10:19:26.803Z,99840.63
2022-11-16T10:22:01.478Z,99833.63
2022-11-16T10:24:50.947Z,99818.69
2022-11-16T10:27:38.664Z,99806.66
2022-11-16T10:30:11.780Z,99809.69
2022-11-16T10:33:15.836Z,99816.16
2022-11-16T10:35:53.593Z,99819.09
2022-11-16T10:38:28.067Z,99820.38
2022-11-16T10:41:31.561Z,99813.50
2022-11-16T10:43:59.500Z,99812.13
2022-11-16T10:46:36.414Z,99806.78
2022-11-16T10:49:14.339Z,99797.47
2022-11-16T10:51:40.799Z,99788.56
2022-11-16T10:54:18.428Z,99787.84
2022-11-16T10:56:49.006Z,99774.81
2022-11-16T10:59:19.451Z,99774.50
2022-11-16T11:01:51.441Z,99770.16
2022-11-16T11:04:28.819Z,99760.34
2022-11-16T11:06:58.103Z,99762.47
2022-11-16T11:09:24.704Z,99748.31
2022-11-16T11:12:39.445Z,99740.63
2022-11-16T11:15:12.001Z,99753.72
2022-11-16T11:17:41.703Z,99758.50
2022-11-16T11:20:28.781Z,99751.38
2022-11-16T11:22:56.688Z,99752.19
2022-11-16T11:25:27.086Z,99739.44
2022-11-16T11:28:19.093Z,99741.97
2022-11-16T11:31:17.227Z,99738.31
2022-11-16T11:33:52.105Z,99735.88
2022-11-16T11:36:25.120Z,99718.69
2022-11-16T11:39:01.931Z,99725.97
2022-11-16T11:41:33.871Z,99717.56
2022-11-16T11:44:05.468Z,99713.44
2022-11-16T11:47:23.678Z,99701.97
2022-11-16T11:49:38.632Z,99709.28
2022-11-16T11:52:37.867Z,99706.13
2022-11-16T11:55:07.890Z,99705.03
2022-11-16T11:57:42.780Z,99709.47
2022-11-16T12:00:14.080Z,99703.38
2022-11-16T12:03:01.064Z,99701.06
2022-11-16T12:05:46.169Z,99711.41
2022-11-16T12:08:33.085Z,99706.53
2022-11-16T12:11:20.621Z,99716.44
2022-11-16T12:14:38.116Z,99704.00
2022-11-16T12:17:09.866Z,99708.34
2022-11-16T12:20:21.370Z,99700.97
2022-11-16T12:23:04.377Z,99695.56
2022-11-16T12:25:42.471Z,99691.84
2022-11-16T12:28:15.210Z,99687.28
2022-11-16T12:31:06.874Z,99679.16
2022-11-16T12:34:05.823Z,99678.78
2022-11-16T12:36:44.566Z,99675.88
2022-11-16T12:39:37.526Z,99680.34
2022-11-16T12:42:46.151Z,99663.47
2022-11-16T12:45:40.852Z,99659.91
2022-11-16T12:48:34.948Z,99670.09
2022-11-16T12:51:38.572Z,99662.41
2022-11-16T12:54:29.638Z,99659.41
2022-11-16T12:57:25.313Z,99660.41
2022-11-16T13:00:11.964Z,99655.59
2022-11-16T13:03:13.303Z,99658.84
2022-11-16T13:05:39.977Z,99652.09
2022-11-16T13:08:15.113Z,99645.91
2022-11-16T13:10:45.551Z,99636.97
2022-11-16T13:13:41.165Z,99625.50
2022-11-16T13:16:08.545Z,99632.63
2022-11-16T13:18:41.555Z,99633.72
2022-11-16T13:21:18.794Z,99632.94
2022-11-16T13:24:03.940Z,99630.28
2022-11-16T13:26:42.631Z,99616.63
2022-11-16T13:29:15.444Z,99620.44
2022-11-16T13:32:19.555Z,99618.75
2022-11-16T13:34:46.947Z,99625.16
2022-11-16T13:37:39.838Z,99613.19
2022-11-16T13:40:06.350Z,99608.59
2022-11-16T13:42:35.870Z,99612.47
2022-11-16T13:45:20.869Z,99606.84
2022-11-16T13:47:56.002Z,99603.03
2022-11-16T13:50:34.493Z,99604.31
2022-11-16T13:54:04.079Z,99601.16
2022-11-16T13:56:02.947Z,99605.56
2022-11-16T13:58:31.500Z,99602.22
2022-11-16T14:01:08.793Z,99598.81
2022-11-16T14:03:40.704Z,99603.97
2022-11-16T14:06:13.259Z,99598.13
2022-11-16T14:08:39.774Z,99601.69
2022-11-16T14:11:35.084Z,99590.16
2022-11-16T14:14:06.157Z,99604.47
2022-11-16T14:16:47.369Z,99599.63
2022-11-16T14:19:47.247Z,99599.63
2022-11-16T14:22:31.295Z,99616.06
2022-11-16T14:25:44.341Z,99602.69
2022-11-16T14:28:35.343Z,99609.75
2022-11-16T14:31:18.131Z,99606.38
2022-11-16T14:33:49.988Z,99607.19
2022-11-16T14:36:17.098Z,99609.84
2022-11-16T14:38:44.068Z,99603.81
2022-11-16T14:41:23.052Z,99600.91
2022-11-16T14:43:53.599Z,99590.66
2022-11-16T14:46:27.935Z,99594.41
2022-11-16T14:48:56.644Z,99601.75
2022-11-16T14:51:30.005Z,99601.91
2022-11-16T14:54:04.235Z,99598.00
2022-11-16T14:56:30.912Z,99598.00
2022-11-16T14:59:02.033Z,99597.16
2022-11-16T15:01:35.025Z,99600.47
2022-11-16T15:04:07.913Z,99589.16
2022-11-16T15:06:43.512Z,99598.25
2022-11-16T15:09:18.321Z,99591.13
2022-11-16T15:12:07.198Z,99595.69
2022-11-16T15:14:40.409Z,99591.59
2022-11-16T15:17:08.051Z,99585.13
2022-11-16T15:19:34.551Z,99587.38
2022-11-16T15:22:04.114Z,99588.38
2022-11-16T15:24:33.866Z,99592.69
2022-11-16T15:27:10.749Z,99596.16
2022-11-16T15:29:37.585Z,99594.00
2022-11-16T15:32:04.825Z,99595.63
2022-11-16T15:34:32.044Z,99579.78
2022-11-16T15:36:58.533Z,99589.28
2022-11-16T15:39:31.706Z,99584.28
2022-11-16T15:42:03.486Z,99582.56
2022-11-16T15:44:31.861Z,99587.47
2022-11-16T15:46:59.419Z,99592.16
2022-11-16T15:49:35.319Z,99595.66
2022-11-16T15:52:02.330Z,99590.66
2022-11-16T15:54:51.182Z,99591.03
2022-11-16T15:57:19.399Z,99584.16
2022-11-16T15:59:54.479Z,99605.91
2022-11-16T16:02:24.333Z,99602.56
2022-11-16T16:04:51.067Z,99602.56
2022-11-16T16:07:37.895Z,99609.19
2022-11-16T16:10:22.028Z,99605.09
2022-11-16T16:13:00.093Z,99599.69
2022-11-16T16:15:36.442Z,99599.69
2022-11-16T16:18:11.472Z,99604.25
2022-11-16T16:20:38.105Z,99605.91
2022-11-16T16:23:11.268Z,99606.56
2022-11-16T16:25:38.256Z,99603.41
2022-11-16T16:28:05.052Z,99605.91
2022-11-16T16:30:34.615Z,99615.38
2022-11-16T16:33:02.317Z,99623.31
2022-11-16T16:35:29.055Z,99628.72
2022-11-16T16:38:00.906Z,99626.00
2022-11-16T16:40:28.800Z,99628.88
2022-11-16T16:42:56.317Z,99629.53
2022-11-16T16:45:38.656Z,99642.34
2022-11-16T16:48:06.138Z,99630.56
2022-11-16T16:50:32.673Z,99632.22
2022-11-16T16:52:59.196Z,99632.41
2022-11-16T16:55:26.035Z,99629.06
2022-11-16T16:57:56.500Z,99632.97
2022-11-16T17:00:23.801Z,99627.38
2022-11-16T17:02:50.609Z,99644.78
2022-11-16T17:05:17.238Z,99651.56
2022-11-16T17:07:43.762Z,99652.56
2022-11-16T17:10:10.219Z,99648.56
2022-11-16T17:12:37.098Z,99643.19
2022-11-16T17:15:03.717Z,99635.28
2022-11-16T17:17:31.439Z,99638.84
2022-11-16T17:19:58.013Z,99629.44
2022-11-16T17:22:24.513Z,99629.06
2022-11-16T17:24:51.288Z,99633.78
2022-11-16T17:27:17.891Z,99630.09
2022-11-16T17:29:44.406Z,99633.59
2022-11-16T17:32:11.025Z,99633.16
2022-11-16T17:34:40.092Z,99640.78
2022-11-16T17:37:06.748Z,99642.06
2022-11-16T17:39:33.300Z,99641.78
2022-11-16T17:41:59.868Z,99653.22
2022-11-16T17:44:26.740Z,99646.34
2022-11-16T17:46:53.298Z,99651.56
2022-11-16T17:49:20.002Z,99655.25
2022-11-16T17:51:46.482Z,99661.13
2022-11-16T17:54:13.176Z,99644.00
2022-11-16T17:56:39.937Z,99645.03
2022-11-16T17:59:06.585Z,99652.09
2022-11-16T18:01:33.371Z,99654.13
2022-11-16T18:04:01.045Z,99650.13
2022-11-16T18:06:28.461Z,99642.59
2022-11-16T18:08:55.020Z,99652.91
2022-11-16T18:11:24.283Z,99662.03
2022-11-16T18:13:56.550Z,99662.38
2022-11-16T18:16:25.917Z,99655.16
2022-11-16T18:19:06.273Z,99662.56
2022-11-16T18:21:39.453Z,99664.81
2022-11-16T18:24:06.262Z,99672.50
2022-11-16T18:26:32.954Z,99675.19
2022-11-16T18:28:59.462Z,99664.97
2022-11-16T18:31:26.339Z,99658.38
2022-11-16T18:33:52.867Z,99666.47
2022-11-16T18:36:20.714Z,99664.81
2022-11-16T18:38:47.736Z,99663.09
2022-11-16T18:41:14.224Z,99671.56
2022-11-16T18:43:49.903Z,99677.97
2022-11-16T18:46:20.671Z,99673.59
2022-11-16T18:48:47.533Z,99654.75
2022-11-16T18:51:15.045Z,99659.94
2022-11-16T18:53:41.836Z,99665.53
2022-11-16T18:56:09.029Z,99672.56
2022-11-16T18:58:52.716Z,99664.00
2022-11-16T19:01:23.566Z,99671.22
2022-11-16T19:03:51.878Z,99674.97
2022-11-16T19:06:18.958Z,99677.47
2022-11-16T19:08:51.752Z,99678.66
2022-11-16T19:11:22.413Z,99682.00
2022-11-16T19:13:53.538Z,99686.53
2022-11-16T19:16:20.203Z,99684.69
2022-11-16T19:18:46.696Z,99682.38
2022-11-16T19:21:15.412Z,99687.59
2022-11-16T19:23:44.480Z,99697.69
2022-11-16T19:26:13.013Z,99693.16
2022-11-16T19:28:41.615Z,99700.22
2022-11-16T19:31:16.313Z,99712.66
2022-11-16T19:33:44.543Z,99716.75
2022-11-16T19:36:11.173Z,99721.75
2022-11-16T19:38:37.963Z,99704.47
2022-11-16T19:41:05.273Z,99703.63
2022-11-16T19:43:32.285Z,99701.59
2022-11-16T19:46:11.167Z,99710.78
2022-11-16T19:48:38.924Z,99709.31
2022-11-16T19:51:07.367Z,99703.94
2022-11-16T19:53:34.740Z,99697.69
2022-11-16T19:56:02.110Z,99696.00
2022-11-16T19:58:29.024Z,99692.97
2022-11-16T20:01:03.425Z,99692.78
2022-11-16T20:03:31.360Z,99695.47
2022-11-16T20:06:11.129Z,99690.28
2022-11-16T20:08:39.128Z,99691.47
2022-11-16T20:11:21.317Z,99696.66
2022-11-16T20:13:48.948Z,99689.31
2022-11-16T20:16:17.123Z,99696.84
2022-11-16T20:18:44.527Z,99696.84
2022-11-16T20:21:22.207Z,99691.47
2022-11-16T20:23:50.964Z,99692.31
2022-11-16T20:26:19.154Z,99679.38
2022-11-16T20:28:46.052Z,99672.59
2022-11-16T20:31:19.270Z,99672.41
2022-11-16T20:33:56.802Z,99664.19
2022-11-16T20:36:25.363Z,99657.09
2022-11-16T20:38:52.651Z,99648.56
2022-11-16T20:41:22.313Z,99650.41
2022-11-16T20:43:56.536Z,99638.13
2022-11-16T20:46:25.659Z,99642.88
2022-11-16T20:48:52.943Z,99651.13
2022-11-16T20:51:20.441Z,99641.44
2022-11-16T20:53:48.662Z,99655.09
2022-11-16T20:56:16.811Z,99655.28
2022-11-16T20:58:44.201Z,99648.38
2022-11-16T21:01:13.221Z,99653.97
2022-11-16T21:03:40.977Z,99654.50
2022-11-16T21:06:08.734Z,99656.19
2022-11-16T21:08:37.085Z,99666.28
2022-11-16T21:11:14.553Z,99667.28
2022-11-16T21:14:00.089Z,99670.69
2022-11-16T21:16:29.804Z,99673.78
2022-11-16T21:18:56.355Z,99677.00
2022-11-16T21:21:24.134Z,99683.75
2022-11-16T21:23:54.124Z,99670.16
2022-11-16T21:26:23.491Z,99675.78
2022-11-16T21:28:50.027Z,99679.81
2022-11-16T21:31:19.087Z,99672.28
2022-11-16T21:33:47.119Z,99670.28
2022-11-16T21:36:16.182Z,99662.44
2022-11-16T21:38:43.188Z,99677.75
2022-11-16T21:41:11.415Z,99680.47
2022-11-16T21:43:38.275Z,99676.97
2022-11-16T21:46:07.268Z,99682.03
2022-11-16T21:48:35.976Z,99689.97
2022-11-16T21:51:04.827Z,99703.25
2022-11-16T21:53:32.387Z,99698.56
2022-11-16T21:55:59.192Z,99699.75
2022-11-16T21:58:26.595Z,99700.25
2022-11-16T22:00:57.540Z,99701.28
2022-11-16T22:03:25.619Z,99707.84
2022-11-16T22:06:16.026Z,99715.56
2022-11-16T22:08:42.940Z,99716.06
2022-11-16T22:11:10.367Z,99717.22
2022-11-16T22:13:39.778Z,99738.06
2022-11-16T22:16:07.126Z,99733.19
2022-11-16T22:18:34.118Z,99731.16
2022-11-16T22:21:01.978Z,99724.97
2022-11-16T22:23:29.694Z,99728.66
2022-11-16T22:26:01.605Z,99728.50
2022-11-16T22:28:28.163Z,99717.59
2022-11-16T22:31:16.293Z,99713.41
2022-11-16T22:33:43.035Z,99704.66
2022-11-16T22:36:11.297Z,99706.69
2022-11-16T22:38:38.209Z,99696.28
2022-11-16T22:41:05.058Z,99684.19
2022-11-16T22:43:32.355Z,99695.28
2022-11-16T22:46:00.302Z,99700.13
2022-11-16T22:48:34.478Z,99705.00
2022-11-16T22:51:07.724Z,99709.00
2022-11-16T22:53:35.646Z,99701.97
2022-11-16T22:56:10.435Z,99697.59
2022-11-16T22:58:38.969Z,99683.00
2022-11-16T23:01:09.328Z,99689.53
2022-11-16T23:03:36.769Z,99675.63
2022-11-16T23:06:04.821Z,99686.50
2022-11-16T23:08:31.854Z,99672.06
2022-11-16T23:11:54.485Z,99677.59
2022-11-16T23:14:40.087Z,99667.00
2022-11-16T23:17:08.510Z,99663.31
2022-11-16T23:19:53.560Z,99659.28
2022-11-16T23:22:41.462Z,99648.88
2022-11-16T23:25:30.034Z,99656.75
2022-11-16T23:28:08.170Z,99646.16
2022-11-16T23:30:35.731Z,99638.09
2022-11-16T23:33:03.096Z,99634.75
2022-11-16T23:35:38.071Z,99629.56
2022-11-16T23:38:06.525Z,99636.94
2022-11-16T23:40:35.534Z,99637.28
2022-11-16T23:43:20.466Z,99633.06
2022-11-16T23:45:47.299Z,99632.19
2022-11-16T23:48:15.663Z,99632.63
2022-11-16T23:50:42.785Z,99632.44
2022-11-16T23:53:10.108Z,99650.03
2022-11-16T23:55:41.175Z,99634.31
2022-11-16T23:58:14.430Z,99653.56
